Rossville, Tennessee
Current Conditions -  °F | °C
As of 7:50 AM on Monday 24 Nov 2014 (Local Time) from KOLV Reporting Station
Few Clouds Few Clouds  
Wind Chill: 41°   Ceiling: Unl
Heat Index: 46°   Visibility: 10mi
Dew Point: 43°   Wind: 12mph
Humidity: 87%   Direction: 290°WNW
Pressure: 29.8"   Gusts: 23mph
Location:  35.05°N, 89.54°W
Report Text: KOLV 241350Z 29010G20KT 10SM FEW035 08/06 A2980
Loading
Personal Weather Stations






























Interactive Weather Map New forecast layout! Learn more

10-Day Weather Forecast

Advertisements
Track Severe Weather on mobile